Time;durP1;ratioP1;P1;durP2;ratioP2;P2;SDS_P1;SDS_P2;PMS_P1;PMS_P2;Temp;Humidity;BMP_temperature;BMP_pressure;BME280_temperature;BME280_humidity;BME280_pressure;Samples;Min_cycle;Max_cycle;Signal;HPM_P1;HPM_P2
2021/04/07 00:02:40;;;;;;;3.70;3.13;;;4.20;85.90;;;;;;10498946;28;20268;-78
2021/04/07 00:07:43;;;;;;;3.67;3.20;;;4.20;86.30;;;;;;10499774;28;20301;-78
2021/04/07 00:12:45;;;;;;;3.40;3.20;;;4.20;85.80;;;;;;10502448;28;20704;-78
2021/04/07 00:17:47;;;;;;;3.23;3.03;;;4.30;86.50;;;;;;10496940;28;20240;-77
2021/04/07 00:22:50;;;;;;;3.13;2.90;;;4.30;85.60;;;;;;10497031;28;20272;-78
2021/04/07 00:27:55;;;;;;;3.50;3.20;;;4.40;85.40;;;;;;10497202;28;20298;-78
2021/04/07 00:32:57;;;;;;;3.10;2.90;;;4.40;84.20;;;;;;10499549;28;20705;-79
2021/04/07 00:37:59;;;;;;;2.97;2.70;;;4.30;84.80;;;;;;10502901;28;20219;-78
2021/04/07 00:43:03;;;;;;;4.13;3.60;;;4.30;83.80;;;;;;10479172;28;20234;-78
2021/04/07 00:48:05;;;;;;;3.73;3.33;;;4.30;85.80;;;;;;10495955;28;20221;-79
2021/04/07 00:53:07;;;;;;;3.53;3.23;;;4.30;85.00;;;;;;10497060;28;20246;-77
2021/04/07 00:58:10;;;;;;;3.00;2.70;;;4.30;83.90;;;;;;10494700;28;20212;-78
2021/04/07 01:03:13;;;;;;;3.20;3.00;;;4.30;84.30;;;;;;10495733;28;20339;-79
2021/04/07 01:08:15;;;;;;;4.40;3.00;;;4.40;84.90;;;;;;10504621;28;20204;-78
2021/04/07 01:13:17;;;;;;;3.37;2.90;;;4.40;85.20;;;;;;10495678;28;20240;-78
2021/04/07 01:18:19;;;;;;;4.07;3.47;;;4.40;84.20;;;;;;10497025;28;20212;-78
2021/04/07 01:23:21;;;;;;;4.60;3.57;;;4.40;83.50;;;;;;10483619;28;20220;-78
2021/04/07 01:28:24;;;;;;;4.00;3.63;;;4.30;83.90;;;;;;10512293;28;20294;-78
2021/04/07 01:33:26;;;;;;;4.20;3.80;;;4.20;84.00;;;;;;10480951;28;20221;-78
2021/04/07 01:38:28;;;;;;;8.07;3.90;;;4.20;82.80;;;;;;10496385;28;20195;-79
2021/04/07 01:43:32;;;;;;;3.93;3.50;;;4.10;82.50;;;;;;10496273;28;20200;-78
2021/04/07 01:48:34;;;;;;;3.73;3.43;;;4.00;81.70;;;;;;10495385;28;20184;-77
2021/04/07 01:53:37;;;;;;;4.07;3.77;;;3.90;81.90;;;;;;10495766;28;20515;-78
2021/04/07 01:58:40;;;;;;;4.43;4.13;;;3.90;82.60;;;;;;10498024;28;20203;-78
2021/04/07 02:03:41;;;;;;;4.27;3.90;;;4.00;84.10;;;;;;10501281;28;20253;-78
2021/04/07 02:08:43;;;;;;;4.33;3.93;;;3.90;81.10;;;;;;10503364;28;20228;-78
2021/04/07 02:13:45;;;;;;;4.20;3.90;;;3.90;81.20;;;;;;10503286;28;20637;-79
2021/04/07 02:18:47;;;;;;;5.40;4.80;;;3.90;81.90;;;;;;10514467;28;20193;-78
2021/04/07 02:23:49;;;;;;;5.00;4.50;;;3.80;82.30;;;;;;10504877;28;20313;-78
2021/04/07 02:28:51;;;;;;;5.20;4.70;;;3.80;80.90;;;;;;10483374;28;20656;-79
2021/04/07 02:33:53;;;;;;;4.50;4.20;;;3.80;80.80;;;;;;10499590;28;20319;-78
2021/04/07 02:38:55;;;;;;;5.20;4.80;;;3.80;80.90;;;;;;10500712;28;20231;-78
2021/04/07 02:43:57;;;;;;;5.60;5.17;;;3.80;80.30;;;;;;10508928;22;20220;-80
2021/04/07 02:48:59;;;;;;;5.63;4.87;;;3.70;80.00;;;;;;10480624;28;20686;-79
2021/04/07 02:54:01;;;;;;;5.53;5.13;;;3.70;80.70;;;;;;10469613;28;20225;-79
2021/04/07 02:59:04;;;;;;;6.03;5.23;;;3.70;81.40;;;;;;10481266;28;20291;-79
2021/04/07 03:04:06;;;;;;;6.00;5.40;;;3.70;81.10;;;;;;10481614;28;20196;-79
2021/04/07 03:09:08;;;;;;;5.87;5.37;;;3.80;81.30;;;;;;10481532;28;20265;-79
2021/04/07 03:14:10;;;;;;;5.00;4.67;;;3.80;79.60;;;;;;10480822;28;20299;-80
2021/04/07 03:19:12;;;;;;;5.40;4.80;;;3.90;79.90;;;;;;10498757;28;20270;-79
2021/04/07 03:24:14;;;;;;;5.10;4.77;;;3.90;80.40;;;;;;10464011;28;20236;-79
2021/04/07 03:29:16;;;;;;;4.77;4.37;;;4.00;79.30;;;;;;10482265;28;20195;-79
2021/04/07 03:34:18;;;;;;;4.50;4.20;;;4.00;78.90;;;;;;10464774;28;20285;-79
2021/04/07 03:39:19;;;;;;;6.13;4.30;;;4.10;78.60;;;;;;10481921;28;20193;-79
2021/04/07 03:44:22;;;;;;;4.57;4.17;;;4.10;78.50;;;;;;10480781;28;20294;-79
2021/04/07 03:49:24;;;;;;;5.53;4.27;;;4.10;78.20;;;;;;10478893;28;20642;-79
2021/04/07 03:54:26;;;;;;;4.37;4.07;;;4.10;78.30;;;;;;10480363;28;20246;-79
2021/04/07 03:59:28;;;;;;;5.03;4.20;;;4.10;78.40;;;;;;10494879;28;20184;-79
2021/04/07 04:04:30;;;;;;;4.50;3.97;;;4.10;77.70;;;;;;10478081;28;20580;-79
2021/04/07 04:09:32;;;;;;;4.47;4.07;;;4.10;77.80;;;;;;10498605;28;20188;-79
2021/04/07 04:14:37;;;;;;;4.53;4.00;;;4.10;77.80;;;;;;10496574;28;20244;-79
2021/04/07 04:19:38;;;;;;;4.60;3.73;;;4.10;78.10;;;;;;10461307;28;20338;-79
2021/04/07 04:24:40;;;;;;;3.90;3.60;;;4.20;77.40;;;;;;10478543;28;20287;-79
2021/04/07 04:29:42;;;;;;;4.10;3.70;;;4.20;77.20;;;;;;10478215;28;20189;-79
2021/04/07 04:34:44;;;;;;;3.57;3.33;;;4.20;77.00;;;;;;10478926;28;20226;-79
2021/04/07 04:39:46;;;;;;;3.83;3.40;;;4.20;76.50;;;;;;10476657;28;20188;-79
2021/04/07 04:44:48;;;;;;;3.00;2.80;;;4.20;76.90;;;;;;10476977;28;20270;-79
2021/04/07 04:49:51;;;;;;;3.70;3.40;;;4.20;75.60;;;;;;10477026;28;20197;-80
2021/04/07 04:54:52;;;;;;;3.67;3.37;;;4.10;75.70;;;;;;10477351;28;20279;-80
2021/04/07 04:59:55;;;;;;;3.70;3.33;;;4.10;75.50;;;;;;10501766;28;20177;-81
2021/04/07 05:04:56;;;;;;;3.70;3.40;;;4.10;75.90;;;;;;10465665;28;20208;-80
2021/04/07 05:09:58;;;;;;;5.33;3.67;;;4.10;76.30;;;;;;10480577;28;20245;-80
2021/04/07 05:15:01;;;;;;;3.43;3.13;;;4.10;75.10;;;;;;10463901;28;20231;-80
2021/04/07 05:20:03;;;;;;;3.47;3.27;;;4.10;73.10;;;;;;10499487;28;20275;-80
2021/04/07 05:25:06;;;;;;;3.70;3.40;;;4.20;73.90;;;;;;10483485;28;20211;-80
2021/04/07 05:30:10;;;;;;;3.97;3.20;;;4.10;74.00;;;;;;10495907;28;20679;-80
2021/04/07 05:35:13;;;;;;;3.53;3.20;;;4.20;72.20;;;;;;10466948;28;20228;-80
2021/04/07 05:40:15;;;;;;;3.87;3.57;;;4.10;74.20;;;;;;10470131;28;20648;-80
2021/04/07 05:45:17;;;;;;;4.87;3.30;;;4.10;73.30;;;;;;10486735;28;20224;-80
2021/04/07 05:50:19;;;;;;;3.90;3.30;;;4.10;73.20;;;;;;10483010;28;20197;-80
2021/04/07 05:55:21;;;;;;;4.17;3.40;;;4.10;73.90;;;;;;10483429;28;20228;-80
2021/04/07 06:00:24;;;;;;;3.50;3.10;;;4.10;73.00;;;;;;10519734;28;20204;-80
2021/04/07 06:05:27;;;;;;;3.40;3.07;;;4.20;71.80;;;;;;10520479;28;20212;-80
2021/04/07 06:10:30;;;;;;;3.80;3.50;;;4.30;72.20;;;;;;10507987;28;20615;-80
2021/04/07 06:15:33;;;;;;;3.40;3.10;;;4.20;70.50;;;;;;10510187;28;20295;-80
2021/04/07 06:20:36;;;;;;;3.50;2.80;;;4.20;71.00;;;;;;10500508;28;20583;-80
2021/04/07 06:25:39;;;;;;;3.40;3.10;;;4.20;70.40;;;;;;10520125;28;20226;-80
2021/04/07 06:30:43;;;;;;;3.73;3.43;;;4.30;70.10;;;;;;10499129;28;20205;-80
2021/04/07 06:35:47;;;;;;;3.07;2.80;;;4.40;70.90;;;;;;10499470;28;20333;-80
2021/04/07 06:40:50;;;;;;;3.87;3.20;;;4.60;69.60;;;;;;10524438;28;20721;-80
2021/04/07 06:45:53;;;;;;;3.50;2.60;;;4.90;68.80;;;;;;10526234;28;20748;-80
2021/04/07 06:50:56;;;;;;;3.70;2.67;;;5.20;68.10;;;;;;10498449;28;20250;-80
2021/04/07 06:55:58;;;;;;;4.40;3.33;;;5.40;66.40;;;;;;10473053;28;20284;-80
2021/04/07 07:01:00;;;;;;;6.37;2.90;;;5.50;65.40;;;;;;10505006;28;20591;-80
2021/04/07 07:06:02;;;;;;;4.00;3.23;;;5.50;64.20;;;;;;10490264;28;20205;-80
2021/04/07 07:11:16;;;;;;;4.20;2.67;;;5.60;65.40;;;;;;10505748;28;20208;-80
2021/04/07 07:16:26;;;;;;;4.43;3.03;;;5.70;64.30;;;;;;10523677;28;20218;-80
2021/04/07 07:21:28;;;;;;;2.20;2.07;;;5.70;63.70;;;;;;10487935;28;20189;-80
2021/04/07 07:26:41;;;;;;;3.70;2.57;;;5.60;65.00;;;;;;10503388;28;20491;-80
2021/04/07 07:31:44;;;;;;;3.00;2.57;;;5.70;63.70;;;;;;10502313;28;20239;-80
2021/04/07 07:36:45;;;;;;;3.10;2.43;;;5.80;61.60;;;;;;10477761;28;20220;-80
2021/04/07 07:41:47;;;;;;;6.87;3.03;;;5.90;63.20;;;;;;10519355;28;20237;-79
2021/04/07 07:46:58;;;;;;;3.37;2.83;;;6.00;61.50;;;;;;10489626;28;20228;-79
2021/04/07 07:52:00;;;;;;;4.67;2.60;;;6.30;61.70;;;;;;10519383;28;20208;-79
2021/04/07 07:57:11;;;;;;;3.23;2.90;;;6.60;60.70;;;;;;10521660;28;20230;-79
2021/04/07 08:02:19;;;;;;;4.10;2.37;;;6.80;59.10;;;;;;10498380;28;20197;-79
2021/04/07 08:07:23;;;;;;;2.90;2.47;;;6.80;60.30;;;;;;10513344;28;20741;-79
2021/04/07 08:12:25;;;;;;;3.67;2.60;;;6.70;58.60;;;;;;10502564;28;20208;-79
2021/04/07 08:17:29;;;;;;;2.70;2.50;;;6.70;58.40;;;;;;10481778;28;20212;-79
2021/04/07 08:22:34;;;;;;;2.50;2.30;;;6.50;59.40;;;;;;10502665;28;20195;-79
2021/04/07 08:27:38;;;;;;;3.30;2.47;;;6.60;58.90;;;;;;10506573;28;20271;-79
2021/04/07 08:32:43;;;;;;;3.07;2.77;;;6.80;59.10;;;;;;10486925;28;20585;-79
2021/04/07 08:37:57;;;;;;;2.63;2.43;;;6.80;59.90;;;;;;10514169;28;20224;-79
2021/04/07 08:42:59;;;;;;;3.83;2.70;;;6.90;60.40;;;;;;10501362;28;20295;-79
2021/04/07 08:48:08;;;;;;;3.07;2.50;;;6.90;61.60;;;;;;10479138;28;20251;-79
2021/04/07 08:53:14;;;;;;;2.97;2.67;;;7.00;62.00;;;;;;10498730;28;20253;-79
2021/04/07 08:58:23;;;;;;;2.77;2.57;;;7.10;61.10;;;;;;10501967;28;20212;-79
2021/04/07 09:03:28;;;;;;;2.50;2.30;;;7.40;59.40;;;;;;10481568;28;20259;-79
2021/04/07 09:08:29;;;;;;;3.30;2.23;;;7.50;58.80;;;;;;10487779;28;20311;-79
2021/04/07 09:13:33;;;;;;;2.13;2.03;;;7.40;58.80;;;;;;10485733;28;20227;-79
2021/04/07 09:18:37;;;;;;;3.27;3.00;;;7.20;59.50;;;;;;10512584;28;20567;-79
2021/04/07 09:23:39;;;;;;;4.63;3.30;;;7.00;64.10;;;;;;10506074;28;20197;-79
2021/04/07 09:28:42;;;;;;;3.67;2.40;;;7.10;63.60;;;;;;10506849;28;20578;-79
2021/04/07 09:33:46;;;;;;;2.97;2.57;;;7.20;63.60;;;;;;10512697;28;20265;-79
2021/04/07 09:38:49;;;;;;;2.90;2.60;;;7.40;62.90;;;;;;10506582;28;20217;-79
2021/04/07 09:43:52;;;;;;;2.90;2.70;;;7.60;62.40;;;;;;10534355;28;20694;-79
2021/04/07 09:48:56;;;;;;;3.23;2.93;;;7.50;59.60;;;;;;10540799;28;20200;-79
2021/04/07 09:54:16;;;;;;;4.00;2.63;;;7.50;59.00;;;;;;10515984;28;20208;-79
2021/04/07 09:59:19;;;;;;;3.10;2.90;;;7.60;58.60;;;;;;10505978;28;20253;-79
2021/04/07 10:04:26;;;;;;;2.90;2.70;;;8.00;57.10;;;;;;10484080;28;20231;-79
2021/04/07 10:09:29;;;;;;;2.87;2.67;;;8.50;56.90;;;;;;10510648;28;20203;-79
2021/04/07 10:14:31;;;;;;;2.60;2.50;;;8.70;54.70;;;;;;10520392;28;20268;-79
2021/04/07 10:19:33;;;;;;;6.33;2.67;;;8.50;56.30;;;;;;10521940;28;20257;-79
2021/04/07 10:24:37;;;;;;;3.20;2.70;;;8.40;54.90;;;;;;10528967;28;20243;-79
2021/04/07 10:29:38;;;;;;;3.10;2.90;;;8.30;55.40;;;;;;10517603;28;20572;-79
2021/04/07 10:34:41;;;;;;;4.20;3.10;;;8.00;57.10;;;;;;10529558;28;20224;-79
2021/04/07 10:39:44;;;;;;;2.60;2.40;;;7.80;58.50;;;;;;10519806;28;20200;-79
2021/04/07 10:44:56;;;;;;;3.50;3.10;;;7.70;57.70;;;;;;10528130;28;20216;-79
2021/04/07 10:49:59;;;;;;;3.20;2.80;;;7.60;58.60;;;;;;10531802;28;20191;-79
2021/04/07 10:55:02;;;;;;;11.93;3.20;;;7.70;57.60;;;;;;10514617;28;20228;-79
2021/04/07 11:00:07;;;;;;;2.83;2.20;;;7.70;55.40;;;;;;10518085;28;20191;-79
2021/04/07 11:05:18;;;;;;;3.13;2.83;;;7.70;55.80;;;;;;10522613;28;20554;-79
2021/04/07 11:10:22;;;;;;;2.73;1.80;;;7.90;54.90;;;;;;10521958;28;20220;-79
2021/04/07 11:15:24;;;;;;;3.30;2.50;;;8.00;55.60;;;;;;10507815;28;20220;-79
2021/04/07 11:20:28;;;;;;;2.80;2.37;;;8.30;54.50;;;;;;10525781;28;20279;-79
2021/04/07 11:25:32;;;;;;;2.83;2.30;;;8.50;53.10;;;;;;10505998;28;20208;-79
2021/04/07 11:30:42;;;;;;;5.43;2.80;;;8.60;54.10;;;;;;10524056;28;20194;-79
2021/04/07 11:35:48;;;;;;;2.97;2.50;;;8.80;52.00;;;;;;10518220;28;20224;-79
2021/04/07 11:41:38;;;;;;;4.53;2.30;;;8.90;52.30;;;;;;10508840;28;20197;-79
2021/04/07 11:46:19;;;;;;;2.30;2.10;;;8.90;52.10;;;;;;10502298;28;20224;-79
2021/04/07 11:51:21;;;;;;;2.70;2.50;;;8.80;50.30;;;;;;10502410;28;20236;-79
2021/04/07 11:56:23;;;;;;;2.50;2.30;;;8.60;50.10;;;;;;10521356;28;20230;-79
2021/04/07 12:01:25;;;;;;;2.63;2.00;;;8.50;49.90;;;;;;10492154;28;20197;-79
2021/04/07 12:06:28;;;;;;;3.20;2.50;;;8.50;48.80;;;;;;10483705;28;20220;-79
2021/04/07 12:11:30;;;;;;;4.50;2.53;;;8.50;49.30;;;;;;10501347;28;20270;-79
2021/04/07 12:16:32;;;;;;;3.40;2.20;;;8.30;50.20;;;;;;10500599;28;20216;-79
2021/04/07 12:21:35;;;;;;;3.43;1.97;;;8.20;49.10;;;;;;10493549;28;20272;-79
2021/04/07 12:26:37;;;;;;;2.13;1.90;;;8.20;51.20;;;;;;10500756;28;20220;-79
2021/04/07 12:31:39;;;;;;;2.70;2.47;;;8.30;51.10;;;;;;10500343;28;20212;-79
2021/04/07 12:36:41;;;;;;;4.17;2.03;;;8.40;50.40;;;;;;10500490;28;20212;-79
2021/04/07 12:41:51;;;;;;;2.13;1.93;;;8.40;51.00;;;;;;10500418;28;20193;-79
2021/04/07 12:46:52;;;;;;;2.07;1.97;;;8.40;51.70;;;;;;10521964;28;20247;-79
2021/04/07 12:51:55;;;;;;;3.07;1.93;;;8.50;51.20;;;;;;10539402;28;20216;-79
2021/04/07 12:56:57;;;;;;;3.60;2.30;;;8.50;51.00;;;;;;10512821;28;20208;-79
2021/04/07 13:01:58;;;;;;;2.53;2.33;;;8.30;51.10;;;;;;10478755;28;20269;-79
2021/04/07 13:07:01;;;;;;;3.10;2.63;;;8.20;51.40;;;;;;10499323;28;20307;-79
2021/04/07 13:12:03;;;;;;;7.43;2.87;;;8.20;51.90;;;;;;10500913;28;20914;-79
2021/04/07 13:17:05;;;;;;;2.17;1.97;;;8.30;52.30;;;;;;10507427;28;20672;-79
2021/04/07 13:22:08;;;;;;;3.30;2.43;;;8.30;53.00;;;;;;10522962;28;20641;-79
2021/04/07 13:27:10;;;;;;;4.27;2.40;;;8.30;53.70;;;;;;10520844;28;20605;-79
2021/04/07 13:32:14;;;;;;;9.87;6.73;;;8.30;54.70;;;;;;10503287;28;20230;-79
2021/04/07 13:37:20;;;;;;;3.40;2.60;;;8.30;54.00;;;;;;10520736;28;20221;-79
2021/04/07 13:47:44;;;;;;;4.10;2.47;;;8.00;54.30;;;;;;10503511;28;20286;-79
2021/04/07 13:52:48;;;;;;;4.00;2.53;;;8.20;54.20;;;;;;10532287;28;20233;-79
2021/04/07 13:57:50;;;;;;;3.23;2.10;;;8.30;53.40;;;;;;10533133;28;20208;-79
2021/04/07 14:02:51;;;;;;;2.27;1.90;;;8.10;54.60;;;;;;10548232;28;20191;-79
2021/04/07 14:07:55;;;;;;;3.37;2.50;;;7.80;54.50;;;;;;10524932;28;20216;-79
2021/04/07 14:12:59;;;;;;;2.63;2.40;;;7.70;54.60;;;;;;10527587;28;20247;-79
2021/04/07 14:18:01;;;;;;;2.70;2.50;;;7.40;54.80;;;;;;10547750;28;20264;-79
2021/04/07 14:23:04;;;;;;;4.00;1.93;;;7.30;54.70;;;;;;10547176;28;20695;-79
2021/04/07 14:28:06;;;;;;;2.40;2.20;;;7.20;55.40;;;;;;10529206;28;20671;-79
2021/04/07 14:33:08;;;;;;;2.43;2.00;;;7.20;55.40;;;;;;10547268;28;20604;-79
2021/04/07 14:38:11;;;;;;;2.40;2.20;;;7.10;55.10;;;;;;10527951;28;20270;-79
2021/04/07 14:43:13;;;;;;;2.43;2.00;;;7.00;55.00;;;;;;10547101;28;20192;-79
2021/04/07 14:48:18;;;;;;;2.30;2.10;;;7.00;55.00;;;;;;10560346;22;20228;-80
2021/04/07 14:53:21;;;;;;;4.20;2.60;;;7.00;54.90;;;;;;10546289;28;20215;-80
2021/04/07 14:58:23;;;;;;;4.07;2.60;;;7.00;55.80;;;;;;10527105;28;20589;-79
2021/04/07 15:03:25;;;;;;;3.97;2.20;;;7.10;56.10;;;;;;10542884;28;20194;-79
2021/04/07 15:08:28;;;;;;;3.47;2.23;;;7.10;57.10;;;;;;10543999;28;20290;-79
2021/04/07 15:13:30;;;;;;;3.00;2.40;;;7.10;58.50;;;;;;10536714;28;20212;-79
2021/04/07 15:18:32;;;;;;;2.73;2.53;;;7.00;62.60;;;;;;10542618;28;20287;-79
2021/04/07 15:23:35;;;;;;;4.60;2.37;;;6.60;64.70;;;;;;10544516;28;20216;-79
2021/04/07 15:28:39;;;;;;;2.20;2.00;;;6.50;66.00;;;;;;10543421;28;20213;-80
2021/04/07 15:33:41;;;;;;;4.60;3.20;;;6.30;70.20;;;;;;10545977;28;20694;-80
2021/04/07 15:38:45;;;;;;;4.50;4.13;;;6.10;74.50;;;;;;10541078;28;20741;-79
2021/04/07 15:43:46;;;;;;;3.53;3.23;;;5.80;77.70;;;;;;10500358;28;20193;-80
2021/04/07 15:48:49;;;;;;;3.50;3.20;;;5.70;80.70;;;;;;10501630;28;20212;-80
2021/04/07 15:53:52;;;;;;;3.60;3.30;;;5.50;82.10;;;;;;10482663;28;20510;-79
2021/04/07 15:58:54;;;;;;;4.80;4.07;;;5.30;83.90;;;;;;10510613;28;20367;-79
2021/04/07 16:03:55;;;;;;;3.97;3.57;;;5.10;84.70;;;;;;10538221;28;20833;-79
2021/04/07 16:08:58;;;;;;;4.20;3.60;;;5.00;86.80;;;;;;10544385;28;20593;-79
2021/04/07 16:14:00;;;;;;;4.40;4.00;;;4.90;87.30;;;;;;10539068;28;20207;-78
2021/04/07 16:19:01;;;;;;;3.83;3.53;;;4.90;89.40;;;;;;10531365;28;20295;-78
2021/04/07 16:24:04;;;;;;;4.10;3.80;;;4.90;89.70;;;;;;10537242;28;20226;-78
2021/04/07 16:29:06;;;;;;;4.50;4.10;;;4.90;90.10;;;;;;10538059;28;20825;-78
2021/04/07 16:34:08;;;;;;;3.87;3.57;;;4.90;89.60;;;;;;10542121;28;20572;-78
2021/04/07 16:39:10;;;;;;;4.50;4.10;;;4.80;90.60;;;;;;10535582;28;20617;-78
2021/04/07 16:44:12;;;;;;;4.10;3.80;;;4.80;90.60;;;;;;10535134;28;20271;-78
2021/04/07 16:49:14;;;;;;;4.50;3.40;;;4.90;90.70;;;;;;10533594;28;20195;-78
2021/04/07 16:54:17;;;;;;;5.83;4.27;;;4.90;91.10;;;;;;10534802;28;20222;-78
2021/04/07 16:59:20;;;;;;;4.90;4.33;;;4.90;90.80;;;;;;10538274;28;20202;-78
2021/04/07 17:04:22;;;;;;;6.30;4.13;;;4.90;90.70;;;;;;10544715;28;20202;-78
2021/04/07 17:09:24;;;;;;;5.70;3.97;;;5.00;90.90;;;;;;10537913;28;20196;-78
2021/04/07 17:14:27;;;;;;;4.80;3.67;;;5.00;90.00;;;;;;10537723;28;20211;-78
2021/04/07 17:19:29;;;;;;;4.00;3.60;;;5.00;89.20;;;;;;10538492;28;20200;-78
2021/04/07 17:24:32;;;;;;;7.17;3.90;;;5.00;90.10;;;;;;10535956;28;20188;-77
2021/04/07 17:29:37;;;;;;;4.67;4.10;;;5.00;90.30;;;;;;10544438;28;20191;-77
2021/04/07 17:34:39;;;;;;;4.60;4.20;;;5.00;89.40;;;;;;10546683;28;20219;-78
2021/04/07 17:39:41;;;;;;;3.60;3.30;;;5.00;89.30;;;;;;10550058;28;20195;-79
2021/04/07 17:44:43;;;;;;;5.60;4.00;;;5.00;86.70;;;;;;10546522;28;20219;-77
2021/04/07 17:49:45;;;;;;;4.77;4.37;;;4.90;85.10;;;;;;10546372;28;20245;-79
2021/04/07 17:54:51;;;;;;;4.10;3.70;;;4.90;87.20;;;;;;10546368;28;20230;-78
2021/04/07 17:59:53;;;;;;;6.07;4.50;;;4.90;83.70;;;;;;10542802;28;20633;-78
2021/04/07 18:04:54;;;;;;;4.80;4.00;;;4.80;84.20;;;;;;10544621;28;20214;-78
2021/04/07 18:09:57;;;;;;;6.30;5.37;;;4.80;84.40;;;;;;10543662;28;20192;-78
2021/04/07 18:14:58;;;;;;;4.43;4.13;;;4.70;85.10;;;;;;10544650;28;20242;-79
2021/04/07 18:20:00;;;;;;;3.90;3.60;;;4.70;85.20;;;;;;10542287;28;20648;-79
2021/04/07 18:25:03;;;;;;;4.03;3.73;;;4.80;85.30;;;;;;10542736;28;20222;-78
2021/04/07 18:30:08;;;;;;;3.97;3.67;;;4.80;84.20;;;;;;10541652;28;20196;-79
2021/04/07 18:35:11;;;;;;;4.27;3.80;;;4.90;83.20;;;;;;10543676;28;20245;-79
2021/04/07 18:40:15;;;;;;;3.63;3.33;;;5.00;81.60;;;;;;10541935;28;20613;-78
2021/04/07 18:45:17;;;;;;;4.73;3.93;;;5.00;80.70;;;;;;10541367;28;20290;-78
2021/04/07 18:50:20;;;;;;;4.00;3.70;;;5.00;79.60;;;;;;10545158;28;20275;-78
2021/04/07 18:55:23;;;;;;;4.97;3.77;;;5.00;79.90;;;;;;10523565;28;20273;-78
2021/04/07 19:00:25;;;;;;;4.47;4.00;;;5.00;79.70;;;;;;10541927;28;20195;-78
2021/04/07 19:05:27;;;;;;;5.90;4.00;;;5.10;80.40;;;;;;10542922;28;20687;-78
2021/04/07 19:10:29;;;;;;;5.30;4.17;;;5.10;79.40;;;;;;10541550;28;20200;-78
2021/04/07 19:15:31;;;;;;;3.63;3.27;;;5.00;78.90;;;;;;10540496;28;20711;-79
2021/04/07 19:20:33;;;;;;;5.53;3.70;;;5.10;78.60;;;;;;10540909;28;20644;-79
2021/04/07 19:25:36;;;;;;;4.53;3.87;;;5.10;78.50;;;;;;10528771;28;20234;-79
2021/04/07 19:30:37;;;;;;;3.50;3.20;;;5.10;77.50;;;;;;10554224;28;20203;-80
2021/04/07 19:35:39;;;;;;;4.07;3.53;;;5.10;76.80;;;;;;10548562;28;20318;-78
2021/04/07 19:40:42;;;;;;;4.60;4.20;;;5.10;77.10;;;;;;10544066;28;20188;-79
2021/04/07 19:45:43;;;;;;;4.07;3.30;;;5.20;76.70;;;;;;10542551;28;20215;-77
2021/04/07 19:50:45;;;;;;;4.10;3.70;;;5.10;76.20;;;;;;10537885;28;20184;-79
2021/04/07 19:55:48;;;;;;;3.60;3.30;;;5.10;76.40;;;;;;10542710;28;20250;-77
2021/04/07 20:00:50;;;;;;;3.93;3.70;;;5.10;75.70;;;;;;10549137;28;20664;-78
2021/04/07 20:05:52;;;;;;;4.80;3.43;;;5.10;75.90;;;;;;10519063;28;20247;-78
2021/04/07 20:10:54;;;;;;;4.17;3.87;;;5.10;76.10;;;;;;10532204;28;20208;-78
2021/04/07 20:15:56;;;;;;;4.97;3.83;;;5.20;76.40;;;;;;10546564;28;20215;-77
2021/04/07 20:20:57;;;;;;;4.13;3.67;;;5.20;77.30;;;;;;10534294;28;20632;-78
2021/04/07 20:26:00;;;;;;;4.70;3.70;;;5.20;76.50;;;;;;10533388;28;20203;-78
2021/04/07 20:31:02;;;;;;;3.93;3.63;;;5.30;76.80;;;;;;10538439;28;20226;-77
2021/04/07 20:36:03;;;;;;;3.33;3.03;;;5.30;75.20;;;;;;10535595;28;20334;-79
2021/04/07 20:41:06;;;;;;;3.20;2.90;;;5.30;75.20;;;;;;10533942;28;20325;-78
2021/04/07 20:46:08;;;;;;;3.53;3.23;;;5.30;74.50;;;;;;10557923;22;20283;-80
2021/04/07 20:51:10;;;;;;;6.90;4.50;;;5.30;75.30;;;;;;10559663;28;20189;-80
2021/04/07 20:56:13;;;;;;;4.50;3.77;;;5.30;74.80;;;;;;10508714;28;20228;-80
2021/04/07 21:01:14;;;;;;;3.53;3.23;;;5.30;74.80;;;;;;10517482;28;20617;-80
2021/04/07 21:06:17;;;;;;;4.60;3.40;;;5.20;73.30;;;;;;10572451;28;20211;-80
2021/04/07 21:11:20;;;;;;;3.23;2.97;;;5.10;74.50;;;;;;10574686;28;20206;-81
2021/04/07 21:16:25;;;;;;;4.10;3.37;;;5.00;74.50;;;;;;10570809;28;20223;-80
2021/04/07 21:21:27;;;;;;;4.83;3.37;;;5.00;74.70;;;;;;10557416;28;20199;-79
2021/04/07 21:26:29;;;;;;;4.70;3.33;;;5.00;75.40;;;;;;10554755;28;20218;-82
2021/04/07 21:31:31;;;;;;;4.13;3.73;;;5.10;75.20;;;;;;10569349;28;20199;-80
2021/04/07 21:36:33;;;;;;;4.00;3.70;;;5.10;74.70;;;;;;10562587;28;20228;-80
2021/04/07 21:41:35;;;;;;;3.90;3.40;;;5.10;74.30;;;;;;10547262;28;20667;-80
2021/04/07 21:46:37;;;;;;;4.03;3.63;;;5.20;75.20;;;;;;10566776;28;20294;-80
2021/04/07 21:51:39;;;;;;;6.03;4.33;;;5.20;73.30;;;;;;10568727;28;20203;-79
2021/04/07 21:56:41;;;;;;;4.30;3.87;;;5.30;72.90;;;;;;10547882;28;20212;-80
2021/04/07 22:01:43;;;;;;;4.53;3.73;;;5.30;73.40;;;;;;10548696;28;20200;-80
2021/04/07 22:06:45;;;;;;;6.27;3.97;;;5.30;72.60;;;;;;10539136;28;20308;-80
2021/04/07 22:11:47;;;;;;;6.10;3.90;;;5.30;72.10;;;;;;10512953;28;20199;-80
2021/04/07 22:16:49;;;;;;;6.73;3.97;;;5.30;72.30;;;;;;10517795;28;20633;-79
2021/04/07 22:21:51;;;;;;;4.80;3.87;;;5.40;73.10;;;;;;10509519;28;20614;-80
2021/04/07 22:26:54;;;;;;;4.30;3.70;;;5.40;71.70;;;;;;10534169;28;20730;-79
2021/04/07 22:31:55;;;;;;;4.10;3.40;;;5.40;71.80;;;;;;10543682;28;20671;-80
2021/04/07 22:36:57;;;;;;;4.63;3.40;;;5.40;72.20;;;;;;10571242;28;20709;-79
2021/04/07 22:42:02;;;;;;;4.13;3.83;;;5.50;72.80;;;;;;10548063;28;20246;-80
2021/04/07 22:47:06;;;;;;;4.67;3.90;;;5.50;72.40;;;;;;10543681;28;20219;-80
2021/04/07 22:52:08;;;;;;;4.10;3.80;;;5.50;72.00;;;;;;10540645;28;20233;-80
2021/04/07 22:57:11;;;;;;;4.27;3.87;;;5.50;73.10;;;;;;10559375;28;20632;-80
2021/04/07 23:02:13;;;;;;;4.07;3.70;;;5.50;71.80;;;;;;10547751;28;20188;-79
2021/04/07 23:07:20;;;;;;;4.60;3.80;;;5.50;71.90;;;;;;10565039;28;20641;-80
2021/04/07 23:12:23;;;;;;;5.23;4.70;;;5.60;71.80;;;;;;10542944;28;20211;-79
2021/04/07 23:17:24;;;;;;;4.10;3.67;;;5.60;73.30;;;;;;10551083;28;20219;-79
2021/04/07 23:22:26;;;;;;;4.33;4.00;;;5.60;73.80;;;;;;10562067;28;20188;-80
2021/04/07 23:27:29;;;;;;;3.90;3.60;;;5.70;72.80;;;;;;10559436;28;20679;-80
2021/04/07 23:32:30;;;;;;;4.10;3.80;;;5.70;73.90;;;;;;10562209;28;20204;-79
2021/04/07 23:37:32;;;;;;;4.90;4.50;;;5.70;74.30;;;;;;10561577;28;20222;-80
2021/04/07 23:42:35;;;;;;;6.03;4.47;;;5.80;74.90;;;;;;10565378;28;20180;-81
2021/04/07 23:47:37;;;;;;;5.17;4.67;;;5.80;75.30;;;;;;10564219;28;20224;-80
2021/04/07 23:52:40;;;;;;;8.33;4.33;;;5.90;77.50;;;;;;10545973;28;20215;-79
2021/04/07 23:57:43;;;;;;;5.50;5.00;;;5.80;80.70;;;;;;10550213;28;20215;-80
